Boyd Golding — WDC9793 — position and weather

sailwx.info

Track history (hours):
 
Tides and Currents Weather Stations Pressure Air Temp Water Temp Dewpoint Dewpoint Depression Visibility Wind Speed Wind Dir Waves Ship Positions

Boyd Golding

Owner: Golding Barge Line, Inc., VICKSBURG, MS. More information available from US FCC via Universal Licensing System and Coast Guard Vessel Documentation Center.

Last reported at 2018-Jun-23 14:43 UTC. Time now 2018-Jun-24 22:32 UTC.
Position N 29°42' W 095°01'.

Length 23 m; draft 2.7 m.

Type: . MMSI: 367106750.

Date/timePositionNaut miles runAvg speedWind from/ knotsBaromVisibWave heightAir tempDewpointWater temp
2018-Jun-23 14:43N 29°42' W 095°01'1 7.0
2018-Jun-23 14:30N 29°42' W 094°59'4 8.3
2018-Jun-23 14:00N 29°38' W 094°58'14 8.9
2018-Jun-23 12:27N 29°26' W 094°50'4 8.9
2018-Jun-23 12:00N 29°22' W 094°47'3 0.4
2018-Jun-23 06:12N 29°24' W 094°45'0 0.0
2018-Jun-23 05:54N 29°24' W 094°45'0 0.0
2018-Jun-23 05:30N 29°24' W 094°45'0 0.0
2018-Jun-23 05:00N 29°24' W 094°45'0 0.0
2018-Jun-23 04:15N 29°24' W 094°45'0 0.0
2018-Jun-23 03:57N 29°24' W 094°45'0 0.0
2018-Jun-23 03:30N 29°24' W 094°45'0 0.0
2018-Jun-23 03:00N 29°24' W 094°45'0 0.0
2018-Jun-23 02:30N 29°24' W 094°45'0 0.0
2018-Jun-23 02:00N 29°24' W 094°45'0 0.0
2018-Jun-23 01:09N 29°24' W 094°45'0 0.0
2018-Jun-22 16:45N 29°24' W 094°45'0 0.0
2018-Jun-22 08:54N 29°24' W 094°45'0 0.0
2018-Jun-22 03:45N 29°24' W 094°45'0 0.0
2018-Jun-22 03:24N 29°24' W 094°45'0 0.0
2018-Jun-22 02:03N 29°24' W 094°45'0 0.0
2018-Jun-22 01:15N 29°24' W 094°45'0 0.0
2018-Jun-22 01:00N 29°24' W 094°45'0 0.0
2018-Jun-22 00:24N 29°24' W 094°45'0 0.0
2018-Jun-21 22:21N 29°24' W 094°45'0 0.0
2018-Jun-21 20:48N 29°24' W 094°45'0 0.0
2018-Jun-21 19:39N 29°24' W 094°45'0 0.0
2018-Jun-21 19:27N 29°24' W 094°45'0 0.0
2018-Jun-21 18:57N 29°24' W 094°45'0 0.0
2018-Jun-21 18:27N 29°24' W 094°45'0 0.0
2018-Jun-21 17:48N 29°24' W 094°45'0 0.0
2018-Jun-21 16:57N 29°24' W 094°45'0 0.0
2018-Jun-21 15:18N 29°24' W 094°45'0 0.0
2018-Jun-21 09:19N 29°24' W 094°45'0 0.1
2018-Jun-21 06:38N 29°24' W 094°45'0 0.0
2018-Jun-21 06:29N 29°24' W 094°45'0 0.3
2018-Jun-21 05:55N 29°24' W 094°45'0 0.0
2018-Jun-21 05:28N 29°24' W 094°45'0 0.0
2018-Jun-21 04:52N 29°24' W 094°45'0 0.0
2018-Jun-21 04:19N 29°24' W 094°45'0 0.0
2018-Jun-21 03:58N 29°24' W 094°45'0 0.0
2018-Jun-21 03:28N 29°24' W 094°45'0 0.0
2018-Jun-21 02:55N 29°24' W 094°45'0 0.0
2018-Jun-21 02:22N 29°24' W 094°45'0 0.0
2018-Jun-21 01:58N 29°24' W 094°45'1 1.2
2018-Jun-21 01:19N 29°23' W 094°46'0 1.2
2018-Jun-21 00:57N 29°23' W 094°46'0 0.0
2018-Jun-21 00:27N 29°23' W 094°46'0 0.0
2018-Jun-20 21:24N 29°23' W 094°46'0 0.2
2018-Jun-20 20:58N 29°23' W 094°46'18 5.4
2018-Jun-20 17:39N 29°32' W 094°29'2 6.2
2018-Jun-20 17:20N 29°34' W 094°27'3 5.3
2018-Jun-20 16:48N 29°36' W 094°25'2 5.4
2018-Jun-20 16:30N 29°36' W 094°23'0 0.8
2018-Jun-20 15:57N 29°36' W 094°23'2 3.6
2018-Jun-20 15:30N 29°37' W 094°21'3 6.5
2018-Jun-20 15:01N 29°38' W 094°18'3 6.9
2018-Jun-20 14:30N 29°40' W 094°14'3 6.6
2018-Jun-20 14:00N 29°41' W 094°11'3 6.2
2018-Jun-20 13:30N 29°43' W 094°08'3 6.0
2018-Jun-20 13:01N 29°45' W 094°05'3 6.3
2018-Jun-20 12:30N 29°47' W 094°02'3 6.2
2018-Jun-20 12:00N 29°49' W 093°60'3 5.3
2018-Jun-20 11:31N 29°50' W 093°57'4 8.6
2018-Jun-20 11:01N 29°54' W 093°54'4 8.5
2018-Jun-20 10:31N 29°57' W 093°52'3 6.3
2018-Jun-20 10:01N 29°59' W 093°48'4 7.6
2018-Jun-20 09:31N 30°01' W 093°45'3 6.0
2018-Jun-20 09:00N 30°03' W 093°42'3 5.9
2018-Jun-20 08:29N 30°04' W 093°39'3 5.6
2018-Jun-20 08:00N 30°04' W 093°36'3 5.5
2018-Jun-20 07:31N 30°04' W 093°32'3 5.4
2018-Jun-20 07:00N 30°04' W 093°29'3 5.3
2018-Jun-20 06:31N 30°04' W 093°26'3 5.0
2018-Jun-20 06:01N 30°04' W 093°23'2 4.0
2018-Jun-20 05:29N 30°04' W 093°21'2 3.4
2018-Jun-20 05:00N 30°05' W 093°20'3 5.3
2018-Jun-20 04:30N 30°08' W 093°20'2 3.3
2018-Jun-20 03:57N 30°10' W 093°19'0 0.0
2018-Jun-20 03:30N 30°10' W 093°19'0 0.0
2018-Jun-20 03:00N 30°10' W 093°19'0 0.0
2018-Jun-20 02:30N 30°10' W 093°19'0 0.0
2018-Jun-20 02:00N 30°10' W 093°19'0 0.0
2018-Jun-20 01:30N 30°10' W 093°19'0 0.0
2018-Jun-20 01:00N 30°10' W 093°19'0 0.0
2018-Jun-20 00:30N 30°10' W 093°19'0 0.0
2018-Jun-20 00:00N 30°10' W 093°19'0 0.0
2018-Jun-19 23:30N 30°10' W 093°19'0 0.0
2018-Jun-19 23:00N 30°10' W 093°19'0 0.0
2018-Jun-19 22:30N 30°10' W 093°19'0 0.0
2018-Jun-19 22:00N 30°10' W 093°19'0 0.0
2018-Jun-19 21:30N 30°10' W 093°19'0 0.0
2018-Jun-19 21:00N 30°10' W 093°19'0 0.0
2018-Jun-19 20:30N 30°10' W 093°19'0 0.0
2018-Jun-19 20:00N 30°10' W 093°19'0 0.0
2018-Jun-19 19:30N 30°10' W 093°19'0 0.0
2018-Jun-19 19:00N 30°10' W 093°19'0 0.0
2018-Jun-19 18:30N 30°10' W 093°19'0 0.0
2018-Jun-19 18:00N 30°10' W 093°19'0 0.0
2018-Jun-19 17:30N 30°10' W 093°19'0 0.0
2018-Jun-19 17:00N 30°10' W 093°19'0 0.0
2018-Jun-19 16:30N 30°10' W 093°19'0 0.0
2018-Jun-19 16:00N 30°10' W 093°19'0 0.0
2018-Jun-19 15:30N 30°10' W 093°19'0 0.0
2018-Jun-19 15:00N 30°10' W 093°19'0 0.0
2018-Jun-19 14:30N 30°10' W 093°19'0 0.5
2018-Jun-19 14:00N 30°10' W 093°19'3 5.0
2018-Jun-19 13:30N 30°12' W 093°17'2 3.7
2018-Jun-19 13:00N 30°13' W 093°16'0 0.7
2018-Jun-19 12:29N 30°13' W 093°16'0 0.0
2018-Jun-19 11:59N 30°13' W 093°16'0 0.0
2018-Jun-19 11:29N 30°13' W 093°16'0 0.0
2018-Jun-19 10:59N 30°13' W 093°16'0 0.0
2018-Jun-19 10:29N 30°13' W 093°16'0 0.0
2018-Jun-19 09:59N 30°13' W 093°16'0 0.0
2018-Jun-19 09:29N 30°13' W 093°16'0 0.0
2018-Jun-19 08:56N 30°13' W 093°16'0 0.0
2018-Jun-19 08:29N 30°13' W 093°16'0 0.0
2018-Jun-19 07:59N 30°13' W 093°16'0 0.0
2018-Jun-19 07:29N 30°13' W 093°16'0 0.0
2018-Jun-19 06:59N 30°13' W 093°16'0 0.0
2018-Jun-19 06:29N 30°13' W 093°16'0 0.0
2018-Jun-19 05:59N 30°13' W 093°16'0 0.0
2018-Jun-19 05:29N 30°13' W 093°16'0 0.0
2018-Jun-19 04:59N 30°13' W 093°16'0 0.0
2018-Jun-19 04:29N 30°13' W 093°16'0 0.0
2018-Jun-19 03:59N 30°13' W 093°16'0 0.0
2018-Jun-19 03:29N 30°13' W 093°16'0 0.0
2018-Jun-19 02:59N 30°13' W 093°16'0 0.0
2018-Jun-19 02:29N 30°13' W 093°16'0 0.0
2018-Jun-19 01:59N 30°13' W 093°16'0 0.0
2018-Jun-19 01:29N 30°13' W 093°16'0 0.0
2018-Jun-19 00:59N 30°13' W 093°16'0 0.0
2018-Jun-19 00:29N 30°13' W 093°16'0 0.0
2018-Jun-18 23:59N 30°13' W 093°16'0 0.0
2018-Jun-18 23:29N 30°13' W 093°16'0 0.0
2018-Jun-18 22:59N 30°13' W 093°16'0 0.0
2018-Jun-18 22:29N 30°13' W 093°16'0 0.0
2018-Jun-18 21:59N 30°13' W 093°16'0 0.0
2018-Jun-18 21:29N 30°13' W 093°16'0 0.0
2018-Jun-18 20:59N 30°13' W 093°16'0 0.0
2018-Jun-18 20:29N 30°13' W 093°16'0 0.0
2018-Jun-18 19:59N 30°13' W 093°16'0 0.0
2018-Jun-18 19:26N 30°13' W 093°16'0 0.0
2018-Jun-18 18:59N 30°13' W 093°16'0 0.0
2018-Jun-18 18:29N 30°13' W 093°16'0 0.0
2018-Jun-18 17:59N 30°13' W 093°16'0 0.0
2018-Jun-18 17:29N 30°13' W 093°16'0 0.0
2018-Jun-18 16:59N 30°13' W 093°16'0 0.0
2018-Jun-18 16:29N 30°13' W 093°16'0 0.0
2018-Jun-18 15:59N 30°13' W 093°16'0 0.0
2018-Jun-18 15:29N 30°13' W 093°16'0 0.0
2018-Jun-18 14:59N 30°13' W 093°16'0 0.0
2018-Jun-18 14:29N 30°13' W 093°16'0 0.0
2018-Jun-18 13:59N 30°13' W 093°16'0 0.0
2018-Jun-18 13:29N 30°13' W 093°16'0 0.0
2018-Jun-18 12:59N 30°13' W 093°16'0 0.0
2018-Jun-18 12:29N 30°13' W 093°16'0 0.0
2018-Jun-18 11:59N 30°13' W 093°16'0 0.0
2018-Jun-18 11:23N 30°13' W 093°16'0 0.0
2018-Jun-18 10:59N 30°13' W 093°16'0 0.0
2018-Jun-18 10:29N 30°13' W 093°16'0 0.0
2018-Jun-18 09:59N 30°13' W 093°16'0 0.0
2018-Jun-18 09:29N 30°13' W 093°16'0 0.0
2018-Jun-18 08:59N 30°13' W 093°16'0 0.0
2018-Jun-18 08:29N 30°13' W 093°16'0 0.0
2018-Jun-18 07:59N 30°13' W 093°16'0 0.0
2018-Jun-18 07:29N 30°13' W 093°16'0 0.0
2018-Jun-18 06:59N 30°13' W 093°16'0 0.0
2018-Jun-18 06:29N 30°13' W 093°16'0 0.0
2018-Jun-18 05:59N 30°13' W 093°16'0 0.0
2018-Jun-18 05:29N 30°13' W 093°16'0 0.0
2018-Jun-18 04:59N 30°13' W 093°16'0 0.0
2018-Jun-18 04:29N 30°13' W 093°16'0 0.0
2018-Jun-18 03:59N 30°13' W 093°16'0 0.0
2018-Jun-18 03:29N 30°13' W 093°16'0 0.0
2018-Jun-18 02:59N 30°13' W 093°16'0 0.0
2018-Jun-18 02:29N 30°13' W 093°16'0 0.0
2018-Jun-18 01:59N 30°13' W 093°16'0 0.0
2018-Jun-18 01:29N 30°13' W 093°16'0 0.0
2018-Jun-18 00:59N 30°13' W 093°16'0 0.0
2018-Jun-18 00:29N 30°13' W 093°16'0 0.0
2018-Jun-17 23:59N 30°13' W 093°16'0 0.0
2018-Jun-17 23:29N 30°13' W 093°16'0 0.0
2018-Jun-17 22:59N 30°13' W 093°16'0 0.0
2018-Jun-17 22:29N 30°13' W 093°16'0 0.0
2018-Jun-17 21:59N 30°13' W 093°16'0 0.0
2018-Jun-17 21:29N 30°13' W 093°16'0 0.0
2018-Jun-17 20:59N 30°13' W 093°16'0 0.0
2018-Jun-17 20:29N 30°13' W 093°16'0 0.0
2018-Jun-17 19:59N 30°13' W 093°16'0 0.0
2018-Jun-17 19:29N 30°13' W 093°16'0 0.0
2018-Jun-17 18:59N 30°13' W 093°16'0 0.0
2018-Jun-17 18:29N 30°13' W 093°16'0 0.0
2018-Jun-17 17:59N 30°13' W 093°16'0 0.0
2018-Jun-17 17:29N 30°13' W 093°16'0 0.0
2018-Jun-17 16:59N 30°13' W 093°16'0 0.0
2018-Jun-17 16:29N 30°13' W 093°16'0 0.0
2018-Jun-17 15:59N 30°13' W 093°16'0 0.0
2018-Jun-17 15:29N 30°13' W 093°16'0 0.0
2018-Jun-17 14:59N 30°13' W 093°16'0 0.0
2018-Jun-17 14:29N 30°13' W 093°16'0 0.0
2018-Jun-17 13:59N 30°13' W 093°16'0 0.0
2018-Jun-17 13:29N 30°13' W 093°16'0 0.0
2018-Jun-17 12:59N 30°13' W 093°16'0 0.0
2018-Jun-17 12:30N 30°13' W 093°16'0 0.0
2018-Jun-17 12:00N 30°13' W 093°16'0 0.0
2018-Jun-17 11:30N 30°13' W 093°16'0 0.0
2018-Jun-17 11:00N 30°13' W 093°16'0 0.0
2018-Jun-17 10:30N 30°13' W 093°16'0 0.0
2018-Jun-17 10:00N 30°13' W 093°16'0 0.0
2018-Jun-17 09:30N 30°13' W 093°16'0 0.0
2018-Jun-17 09:00N 30°13' W 093°16'0 0.0
2018-Jun-17 08:30N 30°13' W 093°16'0 0.0
2018-Jun-17 08:00N 30°13' W 093°16'0 0.0
2018-Jun-17 07:30N 30°13' W 093°16'0 0.0
2018-Jun-17 07:00N 30°13' W 093°16'0 0.0
2018-Jun-17 06:30N 30°13' W 093°16'0 0.0
2018-Jun-17 06:00N 30°13' W 093°16'0 0.0
2018-Jun-17 05:30N 30°13' W 093°16'0 0.0
2018-Jun-17 05:00N 30°13' W 093°16'0 0.0
2018-Jun-17 04:30N 30°13' W 093°16'0 0.0
2018-Jun-17 03:57N 30°13' W 093°16'0 0.0
2018-Jun-17 03:30N 30°13' W 093°16'0 0.0
2018-Jun-17 03:00N 30°13' W 093°16'0 0.0
2018-Jun-17 02:30N 30°13' W 093°16'0 0.0
2018-Jun-17 02:00N 30°13' W 093°16'0 0.0
2018-Jun-17 01:27N 30°13' W 093°16'0 0.0
2018-Jun-17 01:00N 30°13' W 093°16'0 0.0
2018-Jun-17 00:30N 30°13' W 093°16'0 0.0
2018-Jun-17 00:00N 30°13' W 093°16'0 0.0
2018-Jun-16 23:30N 30°13' W 093°16'0 0.0
2018-Jun-16 23:00N 30°13' W 093°16'0 0.0
2018-Jun-16 22:30N 30°13' W 093°16'0 0.0
2018-Jun-16 22:00N 30°13' W 093°16'0 0.1
2018-Jun-16 21:30N 30°13' W 093°16'0 0.8
2018-Jun-16 21:00N 30°13' W 093°16'1 1.3
2018-Jun-16 20:29N 30°12' W 093°16'1 1.4
2018-Jun-16 20:00N 30°12' W 093°17'3 5.4
2018-Jun-16 19:30N 30°10' W 093°19'3 5.5
2018-Jun-16 19:00N 30°08' W 093°20'2 4.8
2018-Jun-16 18:30N 30°05' W 093°20'2 3.2
2018-Jun-16 18:00N 30°04' W 093°21'1 2.5
2018-Jun-16 17:30N 30°04' W 093°22'1 2.3
2018-Jun-16 17:00N 30°04' W 093°24'1 2.8
2018-Jun-16 16:30N 30°04' W 093°25'1 2.3
2018-Jun-16 16:01N 30°04' W 093°27'2 4.3
2018-Jun-16 15:30N 30°04' W 093°29'2 4.3
2018-Jun-16 15:00N 30°04' W 093°32'2 4.3
2018-Jun-16 14:30N 30°04' W 093°34'2 4.3
2018-Jun-16 13:58N 30°03' W 093°37'2 4.5
2018-Jun-16 13:30N 30°04' W 093°39'2 4.5
2018-Jun-16 13:00N 30°03' W 093°42'1 2.1
2018-Jun-16 12:30N 30°03' W 093°43'0 0.0
2018-Jun-16 12:00N 30°03' W 093°43'0 0.0
2018-Jun-16 11:30N 30°03' W 093°43'0 0.0
2018-Jun-16 11:00N 30°03' W 093°43'0 0.0
2018-Jun-16 10:30N 30°03' W 093°43'0 0.0
2018-Jun-16 10:00N 30°03' W 093°43'0 0.0
2018-Jun-16 09:30N 30°03' W 093°43'0 0.0
2018-Jun-16 09:00N 30°03' W 093°43'0 0.0
2018-Jun-16 08:30N 30°03' W 093°43'0 0.0
2018-Jun-16 08:00N 30°03' W 093°43'0 0.0
2018-Jun-16 07:30N 30°03' W 093°43'0 0.0
2018-Jun-16 07:00N 30°03' W 093°43'1 1.8
2018-Jun-16 06:30N 30°03' W 093°44'2 4.8
2018-Jun-16 06:00N 30°01' W 093°45'2 4.9
2018-Jun-16 05:30N 29°59' W 093°48'3 5.1
2018-Jun-16 05:00N 29°58' W 093°50'3 5.6
2018-Jun-16 04:30N 29°56' W 093°52'3 5.5
2018-Jun-16 04:00N 29°54' W 093°54'2 4.8
2018-Jun-16 03:30N 29°52' W 093°56'2 4.3
2018-Jun-16 03:00N 29°50' W 093°57'2 4.1
2018-Jun-16 02:30N 29°49' W 093°59'2 4.4
2018-Jun-16 02:00N 29°47' W 094°01'2 4.5
2018-Jun-16 01:30N 29°46' W 094°03'2 4.4
2018-Jun-16 01:00N 29°45' W 094°05'2 4.5
2018-Jun-16 00:30N 29°43' W 094°07'2 4.5
2018-Jun-16 00:00N 29°42' W 094°09'2 3.5
2018-Jun-15 23:30N 29°41' W 094°11'2 3.2
2018-Jun-15 22:59N 29°41' W 094°13'2 4.3
2018-Jun-15 22:30N 29°40' W 094°15'2 4.8
2018-Jun-15 21:59N 29°38' W 094°17'2 4.8
2018-Jun-15 21:30N 29°37' W 094°20'2 4.7
2018-Jun-15 20:59N 29°36' W 094°22'3 4.2
2018-Jun-15 20:22N 29°35' W 094°25'2 3.7
2018-Jun-15 19:44N 29°34' W 094°27'12 4.8
2018-Jun-15 17:11N 29°28' W 094°39'5 4.5
2018-Jun-15 16:10N 29°25' W 094°44'1 4.5
2018-Jun-15 16:00N 29°25' W 094°44'4 4.2
2018-Jun-15 14:59N 29°23' W 094°48'12 6.2
2018-Jun-15 13:06N 29°33' W 094°55'1 7.0
2018-Jun-15 13:00N 29°33' W 094°55'4 7.2
2018-Jun-15 12:30N 29°36' W 094°57'4 7.9
2018-Jun-15 11:57N 29°41' W 094°59'7 0.2
2018-Jun-14 04:26N 29°45' W 095°04'3 6.4
2018-Jun-14 03:57N 29°44' W 095°01'3 7.1
2018-Jun-14 03:29N 29°41' W 094°59'4 7.9
2018-Jun-14 02:58N 29°37' W 094°57'14 8.3
2018-Jun-14 01:19N 29°25' W 094°50'2 7.6
2018-Jun-14 01:00N 29°23' W 094°49'2 4.3
2018-Jun-14 00:28N 29°23' W 094°46'1 0.3
2018-Jun-13 21:46N 29°24' W 094°45'  
Track history (hours):
 
Tides and Currents Weather Stations Pressure Air Temp Water Temp Dewpoint Dewpoint Depression Visibility Wind Speed Wind Dir Waves Ship Positions

Boyd Golding

Owner: Golding Barge Line, Inc., VICKSBURG, MS. More information available from US FCC via Universal Licensing System and Coast Guard Vessel Documentation Center.

Last reported at 2018-Jun-23 14:43 UTC. Time now 2018-Jun-24 22:32 UTC.
Position N 29°42' W 095°01'.

Length 23 m; draft 2.7 m.

Type: . MMSI: 367106750.

Date/timePositionNaut miles runAvg speedWind from/ knotsBaromVisibWave heightAir tempDewpointWater temp
2018-Jun-23 14:43N 29°42' W 095°01'1 7.0
2018-Jun-23 14:30N 29°42' W 094°59'4 8.3
2018-Jun-23 14:00N 29°38' W 094°58'14 8.9
2018-Jun-23 12:27N 29°26' W 094°50'4 8.9
2018-Jun-23 12:00N 29°22' W 094°47'3 0.4
2018-Jun-23 06:12N 29°24' W 094°45'0 0.0
2018-Jun-23 05:54N 29°24' W 094°45'0 0.0
2018-Jun-23 05:30N 29°24' W 094°45'0 0.0
2018-Jun-23 05:00N 29°24' W 094°45'0 0.0
2018-Jun-23 04:15N 29°24' W 094°45'0 0.0
2018-Jun-23 03:57N 29°24' W 094°45'0 0.0
2018-Jun-23 03:30N 29°24' W 094°45'0 0.0
2018-Jun-23 03:00N 29°24' W 094°45'0 0.0
2018-Jun-23 02:30N 29°24' W 094°45'0 0.0
2018-Jun-23 02:00N 29°24' W 094°45'0 0.0
2018-Jun-23 01:09N 29°24' W 094°45'0 0.0
2018-Jun-22 16:45N 29°24' W 094°45'0 0.0
2018-Jun-22 08:54N 29°24' W 094°45'0 0.0
2018-Jun-22 03:45N 29°24' W 094°45'0 0.0
2018-Jun-22 03:24N 29°24' W 094°45'0 0.0
2018-Jun-22 02:03N 29°24' W 094°45'0 0.0
2018-Jun-22 01:15N 29°24' W 094°45'0 0.0
2018-Jun-22 01:00N 29°24' W 094°45'0 0.0
2018-Jun-22 00:24N 29°24' W 094°45'0 0.0
2018-Jun-21 22:21N 29°24' W 094°45'0 0.0
2018-Jun-21 20:48N 29°24' W 094°45'0 0.0
2018-Jun-21 19:39N 29°24' W 094°45'0 0.0
2018-Jun-21 19:27N 29°24' W 094°45'0 0.0
2018-Jun-21 18:57N 29°24' W 094°45'0 0.0
2018-Jun-21 18:27N 29°24' W 094°45'0 0.0
2018-Jun-21 17:48N 29°24' W 094°45'0 0.0
2018-Jun-21 16:57N 29°24' W 094°45'0 0.0
2018-Jun-21 15:18N 29°24' W 094°45'0 0.0
2018-Jun-21 09:19N 29°24' W 094°45'0 0.1
2018-Jun-21 06:38N 29°24' W 094°45'0 0.0
2018-Jun-21 06:29N 29°24' W 094°45'0 0.3
2018-Jun-21 05:55N 29°24' W 094°45'0 0.0
2018-Jun-21 05:28N 29°24' W 094°45'0 0.0
2018-Jun-21 04:52N 29°24' W 094°45'0 0.0
2018-Jun-21 04:19N 29°24' W 094°45'0 0.0
2018-Jun-21 03:58N 29°24' W 094°45'0 0.0
2018-Jun-21 03:28N 29°24' W 094°45'0 0.0
2018-Jun-21 02:55N 29°24' W 094°45'0 0.0
2018-Jun-21 02:22N 29°24' W 094°45'0 0.0
2018-Jun-21 01:58N 29°24' W 094°45'1 1.2
2018-Jun-21 01:19N 29°23' W 094°46'0 1.2
2018-Jun-21 00:57N 29°23' W 094°46'0 0.0
2018-Jun-21 00:27N 29°23' W 094°46'0 0.0
2018-Jun-20 21:24N 29°23' W 094°46'0 0.2
2018-Jun-20 20:58N 29°23' W 094°46'18 5.4
2018-Jun-20 17:39N 29°32' W 094°29'2 6.2
2018-Jun-20 17:20N 29°34' W 094°27'3 5.3
2018-Jun-20 16:48N 29°36' W 094°25'2 5.4
2018-Jun-20 16:30N 29°36' W 094°23'0 0.8
2018-Jun-20 15:57N 29°36' W 094°23'2 3.6
2018-Jun-20 15:30N 29°37' W 094°21'3 6.5
2018-Jun-20 15:01N 29°38' W 094°18'3 6.9
2018-Jun-20 14:30N 29°40' W 094°14'3 6.6
2018-Jun-20 14:00N 29°41' W 094°11'3 6.2
2018-Jun-20 13:30N 29°43' W 094°08'3 6.0
2018-Jun-20 13:01N 29°45' W 094°05'3 6.3
2018-Jun-20 12:30N 29°47' W 094°02'3 6.2
2018-Jun-20 12:00N 29°49' W 093°60'3 5.3
2018-Jun-20 11:31N 29°50' W 093°57'4 8.6
2018-Jun-20 11:01N 29°54' W 093°54'4 8.5
2018-Jun-20 10:31N 29°57' W 093°52'3 6.3
2018-Jun-20 10:01N 29°59' W 093°48'4 7.6
2018-Jun-20 09:31N 30°01' W 093°45'3 6.0
2018-Jun-20 09:00N 30°03' W 093°42'3 5.9
2018-Jun-20 08:29N 30°04' W 093°39'3 5.6
2018-Jun-20 08:00N 30°04' W 093°36'3 5.5
2018-Jun-20 07:31N 30°04' W 093°32'3 5.4
2018-Jun-20 07:00N 30°04' W 093°29'3 5.3
2018-Jun-20 06:31N 30°04' W 093°26'3 5.0
2018-Jun-20 06:01N 30°04' W 093°23'2 4.0
2018-Jun-20 05:29N 30°04' W 093°21'2 3.4
2018-Jun-20 05:00N 30°05' W 093°20'3 5.3
2018-Jun-20 04:30N 30°08' W 093°20'2 3.3
2018-Jun-20 03:57N 30°10' W 093°19'0 0.0
2018-Jun-20 03:30N 30°10' W 093°19'0 0.0
2018-Jun-20 03:00N 30°10' W 093°19'0 0.0
2018-Jun-20 02:30N 30°10' W 093°19'0 0.0
2018-Jun-20 02:00N 30°10' W 093°19'0 0.0
2018-Jun-20 01:30N 30°10' W 093°19'0 0.0
2018-Jun-20 01:00N 30°10' W 093°19'0 0.0
2018-Jun-20 00:30N 30°10' W 093°19'0 0.0
2018-Jun-20 00:00N 30°10' W 093°19'0 0.0
2018-Jun-19 23:30N 30°10' W 093°19'0 0.0
2018-Jun-19 23:00N 30°10' W 093°19'0 0.0
2018-Jun-19 22:30N 30°10' W 093°19'0 0.0
2018-Jun-19 22:00N 30°10' W 093°19'0 0.0
2018-Jun-19 21:30N 30°10' W 093°19'0 0.0
2018-Jun-19 21:00N 30°10' W 093°19'0 0.0
2018-Jun-19 20:30N 30°10' W 093°19'0 0.0
2018-Jun-19 20:00N 30°10' W 093°19'0 0.0
2018-Jun-19 19:30N 30°10' W 093°19'0 0.0
2018-Jun-19 19:00N 30°10' W 093°19'0 0.0
2018-Jun-19 18:30N 30°10' W 093°19'0 0.0
2018-Jun-19 18:00N 30°10' W 093°19'0 0.0
2018-Jun-19 17:30N 30°10' W 093°19'0 0.0
2018-Jun-19 17:00N 30°10' W 093°19'0 0.0
2018-Jun-19 16:30N 30°10' W 093°19'0 0.0
2018-Jun-19 16:00N 30°10' W 093°19'0 0.0
2018-Jun-19 15:30N 30°10' W 093°19'0 0.0
2018-Jun-19 15:00N 30°10' W 093°19'0 0.0
2018-Jun-19 14:30N 30°10' W 093°19'0 0.5
2018-Jun-19 14:00N 30°10' W 093°19'3 5.0
2018-Jun-19 13:30N 30°12' W 093°17'2 3.7
2018-Jun-19 13:00N 30°13' W 093°16'0 0.7
2018-Jun-19 12:29N 30°13' W 093°16'0 0.0
2018-Jun-19 11:59N 30°13' W 093°16'0 0.0
2018-Jun-19 11:29N 30°13' W 093°16'0 0.0
2018-Jun-19 10:59N 30°13' W 093°16'0 0.0
2018-Jun-19 10:29N 30°13' W 093°16'0 0.0
2018-Jun-19 09:59N 30°13' W 093°16'0 0.0
2018-Jun-19 09:29N 30°13' W 093°16'0 0.0
2018-Jun-19 08:56N 30°13' W 093°16'0 0.0
2018-Jun-19 08:29N 30°13' W 093°16'0 0.0
2018-Jun-19 07:59N 30°13' W 093°16'0 0.0
2018-Jun-19 07:29N 30°13' W 093°16'0 0.0
2018-Jun-19 06:59N 30°13' W 093°16'0 0.0
2018-Jun-19 06:29N 30°13' W 093°16'0 0.0
2018-Jun-19 05:59N 30°13' W 093°16'0 0.0
2018-Jun-19 05:29N 30°13' W 093°16'0 0.0
2018-Jun-19 04:59N 30°13' W 093°16'0 0.0
2018-Jun-19 04:29N 30°13' W 093°16'0 0.0
2018-Jun-19 03:59N 30°13' W 093°16'0 0.0
2018-Jun-19 03:29N 30°13' W 093°16'0 0.0
2018-Jun-19 02:59N 30°13' W 093°16'0 0.0
2018-Jun-19 02:29N 30°13' W 093°16'0 0.0
2018-Jun-19 01:59N 30°13' W 093°16'0 0.0
2018-Jun-19 01:29N 30°13' W 093°16'0 0.0
2018-Jun-19 00:59N 30°13' W 093°16'0 0.0
2018-Jun-19 00:29N 30°13' W 093°16'0 0.0
2018-Jun-18 23:59N 30°13' W 093°16'0 0.0
2018-Jun-18 23:29N 30°13' W 093°16'0 0.0
2018-Jun-18 22:59N 30°13' W 093°16'0 0.0
2018-Jun-18 22:29N 30°13' W 093°16'0 0.0
2018-Jun-18 21:59N 30°13' W 093°16'0 0.0
2018-Jun-18 21:29N 30°13' W 093°16'0 0.0
2018-Jun-18 20:59N 30°13' W 093°16'0 0.0
2018-Jun-18 20:29N 30°13' W 093°16'0 0.0
2018-Jun-18 19:59N 30°13' W 093°16'0 0.0
2018-Jun-18 19:26N 30°13' W 093°16'0 0.0
2018-Jun-18 18:59N 30°13' W 093°16'0 0.0
2018-Jun-18 18:29N 30°13' W 093°16'0 0.0
2018-Jun-18 17:59N 30°13' W 093°16'0 0.0
2018-Jun-18 17:29N 30°13' W 093°16'0 0.0
2018-Jun-18 16:59N 30°13' W 093°16'0 0.0
2018-Jun-18 16:29N 30°13' W 093°16'0 0.0
2018-Jun-18 15:59N 30°13' W 093°16'0 0.0
2018-Jun-18 15:29N 30°13' W 093°16'0 0.0
2018-Jun-18 14:59N 30°13' W 093°16'0 0.0
2018-Jun-18 14:29N 30°13' W 093°16'0 0.0
2018-Jun-18 13:59N 30°13' W 093°16'0 0.0
2018-Jun-18 13:29N 30°13' W 093°16'0 0.0
2018-Jun-18 12:59N 30°13' W 093°16'0 0.0
2018-Jun-18 12:29N 30°13' W 093°16'0 0.0
2018-Jun-18 11:59N 30°13' W 093°16'0 0.0
2018-Jun-18 11:23N 30°13' W 093°16'0 0.0
2018-Jun-18 10:59N 30°13' W 093°16'0 0.0
2018-Jun-18 10:29N 30°13' W 093°16'0 0.0
2018-Jun-18 09:59N 30°13' W 093°16'0 0.0
2018-Jun-18 09:29N 30°13' W 093°16'0 0.0
2018-Jun-18 08:59N 30°13' W 093°16'0 0.0
2018-Jun-18 08:29N 30°13' W 093°16'0 0.0
2018-Jun-18 07:59N 30°13' W 093°16'0 0.0
2018-Jun-18 07:29N 30°13' W 093°16'0 0.0
2018-Jun-18 06:59N 30°13' W 093°16'0 0.0
2018-Jun-18 06:29N 30°13' W 093°16'0 0.0
2018-Jun-18 05:59N 30°13' W 093°16'0 0.0
2018-Jun-18 05:29N 30°13' W 093°16'0 0.0
2018-Jun-18 04:59N 30°13' W 093°16'0 0.0
2018-Jun-18 04:29N 30°13' W 093°16'0 0.0
2018-Jun-18 03:59N 30°13' W 093°16'0 0.0
2018-Jun-18 03:29N 30°13' W 093°16'0 0.0
2018-Jun-18 02:59N 30°13' W 093°16'0 0.0
2018-Jun-18 02:29N 30°13' W 093°16'0 0.0
2018-Jun-18 01:59N 30°13' W 093°16'0 0.0
2018-Jun-18 01:29N 30°13' W 093°16'0 0.0
2018-Jun-18 00:59N 30°13' W 093°16'0 0.0
2018-Jun-18 00:29N 30°13' W 093°16'0 0.0
2018-Jun-17 23:59N 30°13' W 093°16'0 0.0
2018-Jun-17 23:29N 30°13' W 093°16'0 0.0
2018-Jun-17 22:59N 30°13' W 093°16'0 0.0
2018-Jun-17 22:29N 30°13' W 093°16'0 0.0
2018-Jun-17 21:59N 30°13' W 093°16'0 0.0
2018-Jun-17 21:29N 30°13' W 093°16'0 0.0
2018-Jun-17 20:59N 30°13' W 093°16'0 0.0
2018-Jun-17 20:29N 30°13' W 093°16'0 0.0
2018-Jun-17 19:59N 30°13' W 093°16'0 0.0
2018-Jun-17 19:29N 30°13' W 093°16'0 0.0
2018-Jun-17 18:59N 30°13' W 093°16'0 0.0
2018-Jun-17 18:29N 30°13' W 093°16'0 0.0
2018-Jun-17 17:59N 30°13' W 093°16'0 0.0
2018-Jun-17 17:29N 30°13' W 093°16'0 0.0
2018-Jun-17 16:59N 30°13' W 093°16'0 0.0
2018-Jun-17 16:29N 30°13' W 093°16'0 0.0
2018-Jun-17 15:59N 30°13' W 093°16'0 0.0
2018-Jun-17 15:29N 30°13' W 093°16'0 0.0
2018-Jun-17 14:59N 30°13' W 093°16'0 0.0
2018-Jun-17 14:29N 30°13' W 093°16'0 0.0
2018-Jun-17 13:59N 30°13' W 093°16'0 0.0
2018-Jun-17 13:29N 30°13' W 093°16'0 0.0
2018-Jun-17 12:59N 30°13' W 093°16'0 0.0
2018-Jun-17 12:30N 30°13' W 093°16'0 0.0
2018-Jun-17 12:00N 30°13' W 093°16'0 0.0
2018-Jun-17 11:30N 30°13' W 093°16'0 0.0
2018-Jun-17 11:00N 30°13' W 093°16'0 0.0
2018-Jun-17 10:30N 30°13' W 093°16'0 0.0
2018-Jun-17 10:00N 30°13' W 093°16'0 0.0
2018-Jun-17 09:30N 30°13' W 093°16'0 0.0
2018-Jun-17 09:00N 30°13' W 093°16'0 0.0
2018-Jun-17 08:30N 30°13' W 093°16'0 0.0
2018-Jun-17 08:00N 30°13' W 093°16'0 0.0
2018-Jun-17 07:30N 30°13' W 093°16'0 0.0
2018-Jun-17 07:00N 30°13' W 093°16'0 0.0
2018-Jun-17 06:30N 30°13' W 093°16'0 0.0
2018-Jun-17 06:00N 30°13' W 093°16'0 0.0
2018-Jun-17 05:30N 30°13' W 093°16'0 0.0
2018-Jun-17 05:00N 30°13' W 093°16'0 0.0
2018-Jun-17 04:30N 30°13' W 093°16'0 0.0
2018-Jun-17 03:57N 30°13' W 093°16'0 0.0
2018-Jun-17 03:30N 30°13' W 093°16'0 0.0
2018-Jun-17 03:00N 30°13' W 093°16'0 0.0
2018-Jun-17 02:30N 30°13' W 093°16'0 0.0
2018-Jun-17 02:00N 30°13' W 093°16'0 0.0
2018-Jun-17 01:27N 30°13' W 093°16'0 0.0
2018-Jun-17 01:00N 30°13' W 093°16'0 0.0
2018-Jun-17 00:30N 30°13' W 093°16'0 0.0
2018-Jun-17 00:00N 30°13' W 093°16'0 0.0
2018-Jun-16 23:30N 30°13' W 093°16'0 0.0
2018-Jun-16 23:00N 30°13' W 093°16'0 0.0
2018-Jun-16 22:30N 30°13' W 093°16'0 0.0
2018-Jun-16 22:00N 30°13' W 093°16'0 0.1
2018-Jun-16 21:30N 30°13' W 093°16'0 0.8
2018-Jun-16 21:00N 30°13' W 093°16'1 1.3
2018-Jun-16 20:29N 30°12' W 093°16'1 1.4
2018-Jun-16 20:00N 30°12' W 093°17'3 5.4
2018-Jun-16 19:30N 30°10' W 093°19'3 5.5
2018-Jun-16 19:00N 30°08' W 093°20'2 4.8
2018-Jun-16 18:30N 30°05' W 093°20'2 3.2
2018-Jun-16 18:00N 30°04' W 093°21'1 2.5
2018-Jun-16 17:30N 30°04' W 093°22'1 2.3
2018-Jun-16 17:00N 30°04' W 093°24'1 2.8
2018-Jun-16 16:30N 30°04' W 093°25'1 2.3
2018-Jun-16 16:01N 30°04' W 093°27'2 4.3
2018-Jun-16 15:30N 30°04' W 093°29'2 4.3
2018-Jun-16 15:00N 30°04' W 093°32'2 4.3
2018-Jun-16 14:30N 30°04' W 093°34'2 4.3
2018-Jun-16 13:58N 30°03' W 093°37'2 4.5
2018-Jun-16 13:30N 30°04' W 093°39'2 4.5
2018-Jun-16 13:00N 30°03' W 093°42'1 2.1
2018-Jun-16 12:30N 30°03' W 093°43'0 0.0
2018-Jun-16 12:00N 30°03' W 093°43'0 0.0
2018-Jun-16 11:30N 30°03' W 093°43'0 0.0
2018-Jun-16 11:00N 30°03' W 093°43'0 0.0
2018-Jun-16 10:30N 30°03' W 093°43'0 0.0
2018-Jun-16 10:00N 30°03' W 093°43'0 0.0
2018-Jun-16 09:30N 30°03' W 093°43'0 0.0
2018-Jun-16 09:00N 30°03' W 093°43'0 0.0
2018-Jun-16 08:30N 30°03' W 093°43'0 0.0
2018-Jun-16 08:00N 30°03' W 093°43'0 0.0
2018-Jun-16 07:30N 30°03' W 093°43'0 0.0
2018-Jun-16 07:00N 30°03' W 093°43'1 1.8
2018-Jun-16 06:30N 30°03' W 093°44'2 4.8
2018-Jun-16 06:00N 30°01' W 093°45'2 4.9
2018-Jun-16 05:30N 29°59' W 093°48'3 5.1
2018-Jun-16 05:00N 29°58' W 093°50'3 5.6
2018-Jun-16 04:30N 29°56' W 093°52'3 5.5
2018-Jun-16 04:00N 29°54' W 093°54'2 4.8
2018-Jun-16 03:30N 29°52' W 093°56'2 4.3
2018-Jun-16 03:00N 29°50' W 093°57'2 4.1
2018-Jun-16 02:30N 29°49' W 093°59'2 4.4
2018-Jun-16 02:00N 29°47' W 094°01'2 4.5
2018-Jun-16 01:30N 29°46' W 094°03'2 4.4
2018-Jun-16 01:00N 29°45' W 094°05'2 4.5
2018-Jun-16 00:30N 29°43' W 094°07'2 4.5
2018-Jun-16 00:00N 29°42' W 094°09'2 3.5
2018-Jun-15 23:30N 29°41' W 094°11'2 3.2
2018-Jun-15 22:59N 29°41' W 094°13'2 4.3
2018-Jun-15 22:30N 29°40' W 094°15'2 4.8
2018-Jun-15 21:59N 29°38' W 094°17'2 4.8
2018-Jun-15 21:30N 29°37' W 094°20'2 4.7
2018-Jun-15 20:59N 29°36' W 094°22'3 4.2
2018-Jun-15 20:22N 29°35' W 094°25'2 3.7
2018-Jun-15 19:44N 29°34' W 094°27'12 4.8
2018-Jun-15 17:11N 29°28' W 094°39'5 4.5
2018-Jun-15 16:10N 29°25' W 094°44'1 4.5
2018-Jun-15 16:00N 29°25' W 094°44'4 4.2
2018-Jun-15 14:59N 29°23' W 094°48'12 6.2
2018-Jun-15 13:06N 29°33' W 094°55'1 7.0
2018-Jun-15 13:00N 29°33' W 094°55'4 7.2
2018-Jun-15 12:30N 29°36' W 094°57'4 7.9
2018-Jun-15 11:57N 29°41' W 094°59'7 0.2
2018-Jun-14 04:26N 29°45' W 095°04'3 6.4
2018-Jun-14 03:57N 29°44' W 095°01'3 7.1
2018-Jun-14 03:29N 29°41' W 094°59'4 7.9
2018-Jun-14 02:58N 29°37' W 094°57'14 8.3
2018-Jun-14 01:19N 29°25' W 094°50'2 7.6
2018-Jun-14 01:00N 29°23' W 094°49'2 4.3
2018-Jun-14 00:28N 29°23' W 094°46'1 0.3
2018-Jun-13 21:46N 29°24' W 094°45'  

Dump ship's entire track history